ROMD(METAR)
10/21 04:00
METAR ROMD 201900Z AUTO 06014KT 9999 BKN019 BKN048 26/23 Q1013 RMK
A2994=
戻る
トップページへ戻る
IMOC Co,.Ltd.